CEJ6 weather

Elk Point Airport
Elk Point, Alberta, Canada

Public forecast

Using degrees Celsius for public forecast. Weather courtesy of forecast.io.

METAR (pilot weather report)

Closest report is CFB Cold Lake, 35.3 nm (65.4 km) NNE. Retrieved 2019/04/19 00:00 UTC (16 minutes ago):

CYOD 190000Z 23013KT 15SM FEW090 BKN240 16/M03 A2981 RMK AC1CS7 AC TR SLP111

TAF (pilot weather forecast)

Forecast is more than 12 hours old.

Closest forecast is CFB Cold Lake, 35.3 nm (65.4 km) NNE. Retrieved 2019/04/18 00:35 UTC (24 hours ago):

TAF CYOD 182330Z 1900/1924 23012KT P6SM SCT080 BKN250 FM190200 23005KT P6SM SCT140 BECMG 1903/1905 VRB03KT FM190500 VRB03KT P6SM OVC080 TEMPO 1905/1911 P6SM -SHRA BECMG 1909/1911 35012KT FM191100 35012KT P6SM SCT030 BKN080 BECMG 1913/1915 29012KT FM192000 29015G25KT P6SM FEW060 SCT180 RMK NXT FCST BY 190600Z